Latest Weather Observations for Kalumburu

IDD60801

Issued at 10:31 am CST Monday 16 September 2019 (issued every 10 minutes, with the page automatically refreshed every 10 minutes)

About weather observations | Map of weather stations | Latest weather observations for NT | Other Formats
Station Details ID: 001019 Name: KALUMBURU Lat: -14.30 Lon: 126.65 Height: 23.0 m
Data from the previous 72 hours. | See also: Recent months at Kalumburu
Date/Time
CST
Temp
°C
App
Temp
°C
Dew
Point
°C
Rel
Hum
%
Delta-T
°C
Wind Press
QNH
hPa
Press
MSL
hPa
Rain since
9am
mm
Dir  Spd
km/h
Gust
km/h
Spd
kts
Gust
kts
16/10:30am 29.5 30.3 16.3 45 8.2 ENE 7 15 4 8 1016.6 1016.4 0.0
16/10:00am 28.3 30.0 18.4 55 6.3 N 7 11 4 6 1016.7 1016.5 0.0
16/09:30am 27.4 29.3 18.9 59 5.5 WNW 7 11 4 6 1016.7 1016.5 0.0
16/09:00am 25.4 27.7 19.5 70 3.8 NW 6 9 3 5 1016.7 1016.5 0.0
16/08:30am 23.1 26.3 18.8 77 2.7 CALM 0 0 0 0 1016.6 1016.4 0.0
16/08:00am 20.9 23.8 19.0 89 1.2 S 2 7 1 4 1016.5 1016.3 0.0
16/07:30am 18.3 20.5 16.6 90 1.0 CALM 0 0 0 0 1016.0 1015.8 0.0
16/07:00am 18.6 21.0 16.9 90 1.0 CALM 0 0 0 0 1015.5 1015.3 0.0
16/06:30am 18.3 20.5 16.5 89 1.1 CALM 0 6 0 3 1015.3 1015.1 0.0
16/06:00am 18.1 19.4 16.1 88 1.2 NE 4 9 2 5 1015.1 1014.9 0.0
16/05:30am 18.9 20.5 16.9 88 1.2 NNE 4 11 2 6 1014.8 1014.6 0.0
16/05:00am 18.7 20.3 16.9 89 1.1 ENE 4 9 2 5 1014.4 1014.2 0.0
16/04:30am 18.7 19.7 16.3 86 1.4 NE 6 11 3 6 1014.3 1014.1 0.0
16/04:00am 19.4 21.7 16.8 85 1.6 CALM 0 0 0 0 1014.2 1014.0 0.0
16/03:30am 20.7 22.5 17.5 82 2.0 NW 4 9 2 5 1014.1 1013.9 0.0
16/03:00am 20.7 22.6 17.7 83 1.8 SSW 4 11 2 6 1013.6 1013.4 0.0
16/02:30am 20.8 22.3 17.6 82 2.0 SW 6 7 3 4 1013.7 1013.5 0.0
16/02:00am 20.4 22.9 17.2 82 2.0 CALM 0 0 0 0 1014.1 1013.9 0.0
16/01:30am 20.9 22.4 17.7 82 2.0 SSW 6 7 3 4 1014.4 1014.2 0.0
16/01:00am 21.2 23.0 18.2 83 1.9 S 6 13 3 7 1014.6 1014.4 0.0
16/12:30am 19.9 22.1 17.5 86 1.5 S 2 7 1 4 1014.9 1014.7 0.0
16/12:00am 20.1 22.6 17.3 84 1.7 CALM 0 0 0 0 1015.1 1014.9 0.0
 
Date/Time
CST
Temp
°C
App
Temp
°C
Dew
Point
°C
Rel
Hum
%
Delta-T
°C
Wind Press
QNH
hPa
Press
MSL
hPa
Rain since
9am
mm
Dir  Spd
km/h
Gust
km/h
Spd
kts
Gust
kts
15/11:30pm 20.9 23.7 17.9 83 1.9 CALM 0 0 0 0 1015.3 1015.1 0.0
15/11:00pm 21.1 24.0 18.1 83 1.9 CALM 0 0 0 0 1015.7 1015.5 0.0
15/10:30pm 21.2 23.8 17.4 79 2.3 CALM 0 0 0 0 1015.7 1015.5 0.0
15/10:00pm 22.5 25.1 17.4 73 3.2 CALM 0 0 0 0 1015.5 1015.3 0.0
15/09:30pm 23.5 25.5 17.9 71 3.5 WNW 4 7 2 4 1015.3 1015.1 0.0
15/09:00pm 24.4 26.2 18.8 71 3.6 WNW 7 11 4 6 1015.2 1015.0 0.0
15/08:30pm 24.7 26.3 19.1 71 3.6 NW 9 15 5 8 1015.0 1014.8 0.0
15/08:00pm 25.0 25.8 19.1 70 3.8 NNW 13 17 7 9 1014.8 1014.6 0.0
15/07:30pm 25.2 25.6 18.9 68 4.0 NNW 15 24 8 13 1014.6 1014.4 0.0
15/07:00pm 25.8 25.1 18.7 65 4.5 N 20 30 11 16 1014.1 1013.9 0.0
15/06:30pm 26.6 25.9 18.2 60 5.3 N 19 30 10 16 1013.8 1013.6 0.0
15/06:00pm 28.1 26.9 17.0 51 7.0 N 19 28 10 15 1013.6 1013.4 0.0
15/05:30pm 29.0 27.2 15.9 45 8.1 N 20 33 11 18 1013.3 1013.1 0.0
15/05:00pm 30.1 28.1 15.0 40 9.2 N 19 28 10 15 1013.0 1012.8 0.0
15/04:30pm 30.9 29.1 14.5 37 10.0 NNW 17 32 9 17 1012.9 1012.7 0.0
15/04:00pm 31.5 29.1 13.7 33 10.7 NNW 19 24 10 13 1012.9 1012.7 0.0
15/03:30pm 31.4 28.9 13.6 33 10.7 N 19 28 10 15 1013.1 1012.9 0.0
15/03:00pm 31.8 29.1 13.5 32 11.0 NNW 20 30 11 16 1013.5 1013.3 0.0
15/02:30pm 32.1 29.3 13.3 31 11.3 NNW 20 30 11 16 1013.8 1013.6 0.0
15/02:00pm 32.2 30.0 14.3 33 10.9 NNW 19 32 10 17 1014.2 1014.0 0.0
15/01:30pm 30.7 28.1 13.9 36 10.1 NNW 20 32 11 17 1014.7 1014.5 0.0
15/01:00pm 31.0 28.5 14.2 36 10.2 NNW 20 30 11 16 1015.1 1014.9 0.0
15/12:30pm 30.7 28.1 13.9 36 10.1 NNW 20 32 11 17 1015.5 1015.3 0.0
15/12:00pm 31.2 29.4 14.4 36 10.2 NW 17 30 9 16 1015.9 1015.7 0.0
15/11:30am 31.2 30.4 16.0 40 9.5 NNW 15 22 8 12 1016.3 1016.1 0.0
15/11:00am 29.9 28.8 14.4 38 9.4 NNE 13 20 7 11 1016.8 1016.6 0.0
15/10:30am 29.2 28.6 15.7 44 8.3 NNE 13 20 7 11 1017.1 1016.9 0.0
15/10:00am 28.2 29.4 16.8 50 7.1 N 6 11 3 6 1017.1 1016.9 0.0
15/09:30am 26.4 28.3 17.7 58 5.5 W 4 7 2 4 1017.1 1016.9 0.0
15/09:00am 24.5 27.4 18.2 68 4.0 CALM 0 6 0 3 1017.1 1016.9 0.0
15/08:30am 22.6 25.9 19.2 81 2.2 CALM 0 0 0 0 1016.8 1016.6 0.0
15/08:00am 20.4 23.7 19.1 92 0.8 CALM 0 0 0 0 1016.7 1016.5 0.0
15/07:30am 17.9 20.1 16.4 91 0.9 CALM 0 4 0 2 1016.0 1015.8 0.0
15/07:00am 17.4 18.6 15.9 91 0.9 NNE 4 7 2 4 1015.6 1015.4 0.0
15/06:30am 16.5 17.3 14.7 89 1.0 NNE 4 11 2 6 1015.6 1015.4 0.0
15/06:00am 16.9 17.5 15.2 90 1.0 ESE 6 9 3 5 1015.2 1015.0 0.0
15/05:30am 17.3 19.1 15.5 89 1.1 CALM 0 0 0 0 1015.0 1014.8 0.0
15/05:00am 17.4 19.2 15.6 89 1.1 CALM 0 0 0 0 1014.8 1014.6 0.0
15/04:30am 18.2 20.4 16.5 90 1.0 CALM 0 0 0 0 1014.5 1014.3 0.0
15/04:00am 18.6 20.6 16.9 90 1.0 NNW 2 7 1 4 1014.4 1014.2 0.0
15/03:30am 17.9 19.9 15.9 88 1.2 CALM 0 0 0 0 1014.6 1014.4 0.0
15/03:00am 18.0 19.2 15.8 87 1.3 S 4 9 2 5 1014.8 1014.6 0.0
15/02:30am 18.2 19.7 15.6 85 1.5 S 2 7 1 4 1015.0 1014.8 0.0
15/02:00am 19.7 21.9 17.5 87 1.3 S 2 6 1 3 1015.2 1015.0 0.0
15/01:30am 18.5 19.9 16.5 88 1.2 ENE 4 9 2 5 1015.6 1015.4 0.0
15/01:00am 19.1 20.7 16.9 87 1.3 S 4 9 2 5 1015.5 1015.3 0.0
15/12:30am 19.8 21.6 17.4 86 1.5 S 4 7 2 4 1015.6 1015.4 0.0
15/12:00am 19.9 22.5 17.5 86 1.5 CALM 0 0 0 0 1015.9 1015.7 0.0
 
Date/Time
CST
Temp
°C
App
Temp
°C
Dew
Point
°C
Rel
Hum
%
Delta-T
°C
Wind Press
QNH
hPa
Press
MSL
hPa
Rain since
9am
mm
Dir  Spd
km/h
Gust
km/h
Spd
kts
Gust
kts
14/11:30pm 20.1 22.5 17.1 83 1.8 CALM 0 0 0 0 1016.0 1015.8 0.0
14/11:00pm 21.2 23.5 17.8 81 2.1 SSW 2 6 1 3 1016.1 1015.9 0.0
14/10:30pm 22.0 24.9 18.2 79 2.4 CALM 0 0 0 0 1016.3 1016.1 0.0
14/10:00pm 22.6 25.5 18.2 76 2.8 CALM 0 0 0 0 1016.6 1016.4 0.0
14/09:30pm 23.8 25.9 18.9 74 3.1 WNW 6 9 3 5 1016.5 1016.3 0.0
14/09:00pm 24.5 26.0 18.9 71 3.6 NNW 9 15 5 8 1016.1 1015.9 0.0
14/08:30pm 24.7 25.9 19.1 71 3.6 NNW 11 17 6 9 1015.9 1015.7 0.0
14/08:00pm 25.0 25.7 18.9 69 3.9 NNW 13 20 7 11 1015.8 1015.6 0.0
14/07:30pm 25.4 25.7 18.8 67 4.2 NNW 15 24 8 13 1015.5 1015.3 0.0
14/07:00pm 25.8 24.6 18.5 64 4.6 NNW 22 30 12 16 1015.2 1015.0 0.0
14/06:30pm 26.5 25.6 18.1 60 5.3 NNW 20 30 11 16 1014.9 1014.7 0.0
14/06:00pm 27.7 26.6 17.8 54 6.3 NNW 20 28 11 15 1014.6 1014.4 0.0
14/05:30pm 28.6 27.3 18.1 53 6.7 NNW 22 33 12 18 1014.5 1014.3 0.0
14/05:00pm 29.5 28.5 18.0 50 7.3 NNW 20 33 11 18 1014.3 1014.1 0.0
14/04:30pm 29.9 28.0 17.7 48 7.8 NNW 24 35 13 19 1014.2 1014.0 0.0
14/04:00pm 29.9 27.5 17.4 47 7.9 NNW 26 37 14 20 1014.1 1013.9 0.0
14/03:30pm 29.9 27.3 17.7 48 7.8 NNW 28 37 15 20 1013.9 1013.7 0.0
14/03:00pm 30.1 26.8 16.1 42 8.7 NNW 28 43 15 23 1014.0 1013.8 0.0
14/02:30pm 31.7 28.5 16.4 39 9.6 NNW 28 39 15 21 1014.1 1013.9 0.0
14/02:00pm 31.9 29.1 15.4 37 10.2 N 24 37 13 20 1014.6 1014.4 0.0
14/01:30pm 32.4 30.1 14.1 33 11.1 N 19 24 10 13 1015.0 1014.8 0.0
14/01:00pm 34.2 28.7 5.7 17 15.4 NE 24 41 13 22 1015.4 1015.2 0.0
14/12:30pm 34.3 29.7 5.8 17 15.4 ENE 19 39 10 21 1015.8 1015.6 0.0
14/12:00pm 33.3 29.3 6.6 19 14.5 ENE 17 32 9 17 1016.5 1016.3 0.0
14/11:30am 33.2 29.4 5.7 18 14.7 NE 15 28 8 15 1016.8 1016.6 0.0
14/11:00am 32.8 27.6 3.7 16 15.1 ENE 20 37 11 20 1017.2 1017.0 0.0
14/10:30am 32.1 26.7 2.2 15 15.0 ENE 20 35 11 19 1017.5 1017.4 0.0
14/10:00am 31.7 26.9 2.8 16 14.6 E 17 30 9 16 1017.4 1017.3 0.0
14/09:30am 29.8 24.5 2.1 17 13.7 E 19 35 10 19 1017.4 1017.3 0.0
14/09:00am 25.8 25.6 13.6 47 7.2 SW 7 13 4 7 1017.6 1017.5 0.0
14/08:30am 22.4 24.0 16.0 67 3.9 WSW 2 7 1 4 1017.5 1017.4 0.0
14/08:00am 20.4 22.4 16.0 76 2.6 CALM 0 0 0 0 1017.3 1017.2 0.0
14/07:30am 18.4 19.4 14.3 77 2.4 SW 2 9 1 5 1017.0 1016.8 0.0
14/07:00am 19.3 20.7 15.4 78 2.3 N 2 11 1 6 1016.6 1016.4 0.0
14/06:30am 20.0 19.8 15.6 76 2.6 S 11 17 6 9 1016.1 1015.9 0.0
14/06:00am 20.1 20.3 15.7 76 2.6 SSW 9 15 5 8 1015.6 1015.4 0.0
14/05:30am 19.9 20.1 15.7 77 2.5 S 9 13 5 7 1015.4 1015.2 0.0
14/05:00am 20.2 20.9 16.0 77 2.5 SSE 7 11 4 6 1015.3 1015.1 0.0
14/04:30am 19.9 21.4 15.7 77 2.5 SSE 2 9 1 5 1015.2 1015.0 0.0
14/04:00am 20.4 21.3 16.0 76 2.6 SSE 6 9 3 5 1015.3 1015.1 0.0
14/03:30am 20.8 21.8 16.8 78 2.4 SSE 7 13 4 7 1015.4 1015.2 0.0
14/03:00am 19.2 20.4 15.9 81 2.0 S 4 9 2 5 1015.5 1015.3 0.0
14/02:30am 18.4 19.8 15.3 82 1.8 S 2 7 1 4 1015.7 1015.5 0.0
14/02:00am 18.4 19.7 15.1 81 1.9 SSE 2 7 1 4 1016.0 1015.8 0.0
14/01:30am 20.1 21.2 16.5 80 2.2 SSE 6 9 3 5 1016.2 1016.0 0.0
14/01:00am 20.6 21.9 18.5 88 1.3 S 9 13 5 7 1016.4 1016.2 0.0
14/12:30am 17.5 18.2 15.5 88 1.2 S 6 9 3 5 1016.4 1016.2 0.0
14/12:00am 17.7 19.4 15.3 86 1.4 CALM 0 0 0 0 1016.7 1016.5 0.0
 
Date/Time
CST
Temp
°C
App
Temp
°C
Dew
Point
°C
Rel
Hum
%
Delta-T
°C
Wind Press
QNH
hPa
Press
MSL
hPa
Rain since
9am
mm
Dir  Spd
km/h
Gust
km/h
Spd
kts
Gust
kts
13/11:30pm 18.8 20.2 16.4 86 1.4 SSW 4 7 2 4 1016.7 1016.5 0.0
13/11:00pm 19.3 21.7 16.9 86 1.5 CALM 0 0 0 0 1016.8 1016.6 0.0
13/10:30pm 19.6 22.0 17.0 85 1.6 CALM 0 0 0 0 1016.9 1016.7 0.0
13/10:00pm 20.3 22.7 17.1 82 2.0 CALM 0 0 0 0 1016.9 1016.7 0.0
13/09:30pm 21.5 22.9 17.9 80 2.2 W 7 9 4 5 1016.5 1016.3 0.0
13/09:00pm 22.4 24.5 17.3 73 3.1 NW 2 7 1 4 1016.3 1016.1 0.0
13/08:30pm 23.1 25.2 18.0 73 3.2 W 4 7 2 4 1016.1 1015.9 0.0
13/08:00pm 24.2 25.6 17.7 67 4.1 NNW 7 13 4 7 1016.0 1015.8 0.0
13/07:30pm 25.0 25.5 17.5 63 4.7 NNW 11 17 6 9 1015.7 1015.5 0.0
13/07:00pm 25.5 25.6 17.4 61 5.1 NNW 13 20 7 11 1015.3 1015.1 0.0
13/06:30pm 26.2 25.0 17.0 57 5.7 NNW 19 26 10 14 1015.0 1014.8 0.0
13/06:00pm 27.1 25.5 16.4 52 6.6 NNW 20 32 11 17 1014.9 1014.7 0.0
13/05:30pm 28.2 25.7 15.1 44 8.0 NNW 22 32 12 17 1014.7 1014.5 0.0
13/05:00pm 29.0 25.8 13.2 37 9.4 N 22 35 12 19 1014.3 1014.1 0.0
13/04:30pm 30.5 26.8 11.5 31 11.0 N 22 33 12 18 1014.2 1014.0 0.0
13/04:00pm 30.9 27.1 11.3 30 11.4 NNW 22 32 12 17 1014.1 1013.9 0.0
13/03:30pm 30.7 27.0 12.6 33 10.7 N 24 33 13 18 1014.3 1014.1 0.0
13/03:00pm 31.4 27.7 12.7 32 11.1 NNW 24 35 13 19 1014.6 1014.4 0.0
13/02:30pm 30.7 26.4 12.1 32 10.9 NNW 26 41 14 22 1014.9 1014.7 0.0
13/02:00pm 31.3 26.3 11.1 29 11.7 N 28 43 15 23 1015.3 1015.1 0.0
13/01:30pm 32.1 29.4 11.8 29 11.9 N 17 32 9 17 1016.0 1015.8 0.0
13/01:00pm 34.6 29.6 1.1 12 16.8 ENE 17 33 9 18 1016.4 1016.2 0.0
13/12:30pm 33.4 28.0 1.3 13 16.0 NE 19 28 10 15 1016.8 1016.6 0.0

Other formats

Comma delimited format used in spreadsheet applications
http://www.bom.gov.au/fwo/IDD60801/IDD60801.94100.axf

JavaScript Object Notation format (JSON) in row-major order
http://www.bom.gov.au/fwo/IDD60801/IDD60801.94100.json

Data quality

Most of these data are generated automatically and are frequently updated. Quality checks on data are not normally performed. It is possible for incorrect values to appear. Refer to information at About Latest Weather Observations and please check the disclaimer before using these data.